sensor_id;sensor_type;location;lat;lon;timestamp;P1;durP1;ratioP1;P2;durP2;ratioP2
12947;SDS011;6539;49.476;8.484;2023-07-24T00:01:50;6.50;;;4.50;;
12947;SDS011;6539;49.476;8.484;2023-07-24T00:04:40;6.90;;;4.53;;
12947;SDS011;6539;49.476;8.484;2023-07-24T00:07:26;5.73;;;4.43;;
12947;SDS011;6539;49.476;8.484;2023-07-24T00:10:12;5.40;;;4.67;;
12947;SDS011;6539;49.476;8.484;2023-07-24T00:12:58;9.43;;;4.20;;
12947;SDS011;6539;49.476;8.484;2023-07-24T00:15:44;5.57;;;4.63;;
12947;SDS011;6539;49.476;8.484;2023-07-24T00:18:30;4.97;;;4.43;;
12947;SDS011;6539;49.476;8.484;2023-07-24T00:21:16;5.77;;;4.70;;
12947;SDS011;6539;49.476;8.484;2023-07-24T00:24:02;5.30;;;4.67;;
12947;SDS011;6539;49.476;8.484;2023-07-24T00:26:49;5.60;;;4.40;;
12947;SDS011;6539;49.476;8.484;2023-07-24T00:29:35;5.63;;;4.70;;
12947;SDS011;6539;49.476;8.484;2023-07-24T00:32:23;5.23;;;4.43;;
12947;SDS011;6539;49.476;8.484;2023-07-24T00:35:11;7.13;;;4.83;;
12947;SDS011;6539;49.476;8.484;2023-07-24T00:37:58;7.13;;;4.47;;
12947;SDS011;6539;49.476;8.484;2023-07-24T00:40:44;5.60;;;4.60;;
12947;SDS011;6539;49.476;8.484;2023-07-24T00:43:32;6.43;;;5.27;;
12947;SDS011;6539;49.476;8.484;2023-07-24T00:46:18;7.07;;;5.00;;
12947;SDS011;6539;49.476;8.484;2023-07-24T00:49:04;4.90;;;4.40;;
12947;SDS011;6539;49.476;8.484;2023-07-24T00:51:51;6.23;;;5.40;;
12947;SDS011;6539;49.476;8.484;2023-07-24T00:54:38;7.60;;;5.27;;
12947;SDS011;6539;49.476;8.484;2023-07-24T00:57:24;7.17;;;5.57;;
12947;SDS011;6539;49.476;8.484;2023-07-24T01:00:10;7.80;;;5.50;;
12947;SDS011;6539;49.476;8.484;2023-07-24T01:02:57;6.57;;;5.73;;
12947;SDS011;6539;49.476;8.484;2023-07-24T01:05:45;8.00;;;6.70;;
12947;SDS011;6539;49.476;8.484;2023-07-24T01:08:31;9.87;;;6.40;;
12947;SDS011;6539;49.476;8.484;2023-07-24T01:11:21;8.30;;;6.13;;
12947;SDS011;6539;49.476;8.484;2023-07-24T01:14:27;8.63;;;5.83;;
12947;SDS011;6539;49.476;8.484;2023-07-24T01:17:28;10.57;;;6.50;;
12947;SDS011;6539;49.476;8.484;2023-07-24T01:20:18;7.37;;;6.00;;
12947;SDS011;6539;49.476;8.484;2023-07-24T01:26:08;7.27;;;6.50;;
12947;SDS011;6539;49.476;8.484;2023-07-24T01:28:56;7.40;;;6.70;;
12947;SDS011;6539;49.476;8.484;2023-07-24T01:31:42;7.47;;;5.90;;
12947;SDS011;6539;49.476;8.484;2023-07-24T01:34:28;7.93;;;6.50;;
12947;SDS011;6539;49.476;8.484;2023-07-24T01:37:16;6.40;;;5.70;;
12947;SDS011;6539;49.476;8.484;2023-07-24T01:40:07;9.03;;;6.27;;
12947;SDS011;6539;49.476;8.484;2023-07-24T01:42:56;8.23;;;6.47;;
12947;SDS011;6539;49.476;8.484;2023-07-24T01:45:44;7.50;;;6.70;;
12947;SDS011;6539;49.476;8.484;2023-07-24T01:48:30;8.97;;;6.77;;
12947;SDS011;6539;49.476;8.484;2023-07-24T01:51:17;8.17;;;6.57;;
12947;SDS011;6539;49.476;8.484;2023-07-24T01:54:06;8.43;;;7.37;;
12947;SDS011;6539;49.476;8.484;2023-07-24T01:56:52;9.47;;;7.70;;
12947;SDS011;6539;49.476;8.484;2023-07-24T01:59:38;8.63;;;6.97;;
12947;SDS011;6539;49.476;8.484;2023-07-24T02:02:24;8.97;;;7.03;;
12947;SDS011;6539;49.476;8.484;2023-07-24T02:05:15;9.13;;;7.17;;
12947;SDS011;6539;49.476;8.484;2023-07-24T02:08:01;7.83;;;7.13;;
12947;SDS011;6539;49.476;8.484;2023-07-24T02:10:49;8.83;;;7.57;;
12947;SDS011;6539;49.476;8.484;2023-07-24T02:13:36;9.47;;;7.73;;
12947;SDS011;6539;49.476;8.484;2023-07-24T02:16:22;9.83;;;7.80;;
12947;SDS011;6539;49.476;8.484;2023-07-24T02:19:08;11.67;;;7.87;;
12947;SDS011;6539;49.476;8.484;2023-07-24T02:21:56;9.70;;;7.80;;
12947;SDS011;6539;49.476;8.484;2023-07-24T02:24:42;8.83;;;7.73;;
12947;SDS011;6539;49.476;8.484;2023-07-24T02:27:30;8.73;;;7.07;;
12947;SDS011;6539;49.476;8.484;2023-07-24T02:30:19;8.50;;;6.57;;
12947;SDS011;6539;49.476;8.484;2023-07-24T02:33:05;9.70;;;7.57;;
12947;SDS011;6539;49.476;8.484;2023-07-24T02:35:51;10.47;;;9.37;;
12947;SDS011;6539;49.476;8.484;2023-07-24T02:38:38;11.73;;;10.40;;
12947;SDS011;6539;49.476;8.484;2023-07-24T02:41:24;8.43;;;6.97;;
12947;SDS011;6539;49.476;8.484;2023-07-24T02:44:12;9.57;;;7.47;;
12947;SDS011;6539;49.476;8.484;2023-07-24T02:46:58;14.07;;;11.97;;
12947;SDS011;6539;49.476;8.484;2023-07-24T02:49:47;8.17;;;7.00;;
12947;SDS011;6539;49.476;8.484;2023-07-24T02:52:33;9.50;;;7.03;;
12947;SDS011;6539;49.476;8.484;2023-07-24T02:55:19;17.63;;;13.43;;
12947;SDS011;6539;49.476;8.484;2023-07-24T02:58:08;9.90;;;8.07;;
12947;SDS011;6539;49.476;8.484;2023-07-24T03:01:04;9.73;;;7.03;;
12947;SDS011;6539;49.476;8.484;2023-07-24T03:03:54;10.20;;;7.10;;
12947;SDS011;6539;49.476;8.484;2023-07-24T03:06:40;7.50;;;6.27;;
12947;SDS011;6539;49.476;8.484;2023-07-24T03:09:28;11.27;;;6.43;;
12947;SDS011;6539;49.476;8.484;2023-07-24T03:12:17;10.37;;;6.77;;
12947;SDS011;6539;49.476;8.484;2023-07-24T03:15:05;10.17;;;6.90;;
12947;SDS011;6539;49.476;8.484;2023-07-24T03:17:54;9.27;;;7.03;;
12947;SDS011;6539;49.476;8.484;2023-07-24T03:20:42;8.30;;;6.53;;
12947;SDS011;6539;49.476;8.484;2023-07-24T03:23:33;9.17;;;6.97;;
12947;SDS011;6539;49.476;8.484;2023-07-24T03:26:19;8.90;;;7.53;;
12947;SDS011;6539;49.476;8.484;2023-07-24T03:29:08;9.47;;;7.40;;
12947;SDS011;6539;49.476;8.484;2023-07-24T03:31:54;8.33;;;5.87;;
12947;SDS011;6539;49.476;8.484;2023-07-24T03:34:40;10.63;;;7.63;;
12947;SDS011;6539;49.476;8.484;2023-07-24T03:37:26;10.70;;;7.33;;
12947;SDS011;6539;49.476;8.484;2023-07-24T03:40:12;9.23;;;7.07;;
12947;SDS011;6539;49.476;8.484;2023-07-24T03:42:59;8.97;;;6.57;;
12947;SDS011;6539;49.476;8.484;2023-07-24T03:45:47;9.20;;;7.17;;
12947;SDS011;6539;49.476;8.484;2023-07-24T03:48:36;10.77;;;7.10;;
12947;SDS011;6539;49.476;8.484;2023-07-24T03:51:22;8.53;;;6.43;;
12947;SDS011;6539;49.476;8.484;2023-07-24T03:54:10;8.13;;;6.37;;
12947;SDS011;6539;49.476;8.484;2023-07-24T03:56:56;10.83;;;6.83;;
12947;SDS011;6539;49.476;8.484;2023-07-24T03:59:42;9.80;;;7.07;;
12947;SDS011;6539;49.476;8.484;2023-07-24T04:02:30;9.77;;;6.67;;
12947;SDS011;6539;49.476;8.484;2023-07-24T04:05:18;8.50;;;6.97;;
12947;SDS011;6539;49.476;8.484;2023-07-24T04:08:04;9.50;;;7.07;;
12947;SDS011;6539;49.476;8.484;2023-07-24T04:10:51;7.83;;;6.97;;
12947;SDS011;6539;49.476;8.484;2023-07-24T04:13:37;7.73;;;6.70;;
12947;SDS011;6539;49.476;8.484;2023-07-24T04:16:23;8.97;;;6.73;;
12947;SDS011;6539;49.476;8.484;2023-07-24T04:19:11;8.77;;;6.87;;
12947;SDS011;6539;49.476;8.484;2023-07-24T04:22:00;8.60;;;6.40;;
12947;SDS011;6539;49.476;8.484;2023-07-24T04:24:50;9.87;;;7.10;;
12947;SDS011;6539;49.476;8.484;2023-07-24T04:27:39;12.53;;;7.20;;
12947;SDS011;6539;49.476;8.484;2023-07-24T04:30:25;7.53;;;6.27;;
12947;SDS011;6539;49.476;8.484;2023-07-24T04:33:11;9.37;;;6.37;;
12947;SDS011;6539;49.476;8.484;2023-07-24T04:35:57;8.03;;;6.40;;
12947;SDS011;6539;49.476;8.484;2023-07-24T04:38:43;7.87;;;6.30;;
12947;SDS011;6539;49.476;8.484;2023-07-24T04:41:31;8.77;;;6.70;;
12947;SDS011;6539;49.476;8.484;2023-07-24T04:44:17;9.80;;;6.90;;
12947;SDS011;6539;49.476;8.484;2023-07-24T04:47:03;10.40;;;6.77;;
12947;SDS011;6539;49.476;8.484;2023-07-24T04:49:54;10.07;;;6.90;;
12947;SDS011;6539;49.476;8.484;2023-07-24T04:52:40;10.87;;;6.93;;
12947;SDS011;6539;49.476;8.484;2023-07-24T04:55:26;8.03;;;6.60;;
12947;SDS011;6539;49.476;8.484;2023-07-24T04:58:12;8.23;;;6.10;;
12947;SDS011;6539;49.476;8.484;2023-07-24T05:01:02;7.27;;;5.93;;
12947;SDS011;6539;49.476;8.484;2023-07-24T05:03:51;9.53;;;7.00;;
12947;SDS011;6539;49.476;8.484;2023-07-24T05:06:39;13.27;;;7.60;;
12947;SDS011;6539;49.476;8.484;2023-07-24T05:09:25;9.30;;;6.80;;
12947;SDS011;6539;49.476;8.484;2023-07-24T05:12:14;9.03;;;6.93;;
12947;SDS011;6539;49.476;8.484;2023-07-24T05:15:00;9.03;;;6.63;;
12947;SDS011;6539;49.476;8.484;2023-07-24T05:17:46;8.13;;;6.47;;
12947;SDS011;6539;49.476;8.484;2023-07-24T05:20:32;10.57;;;7.37;;
12947;SDS011;6539;49.476;8.484;2023-07-24T05:23:18;8.83;;;6.50;;
12947;SDS011;6539;49.476;8.484;2023-07-24T05:26:09;8.87;;;6.97;;
12947;SDS011;6539;49.476;8.484;2023-07-24T05:28:55;8.93;;;7.20;;
12947;SDS011;6539;49.476;8.484;2023-07-24T05:31:42;8.97;;;6.57;;
12947;SDS011;6539;49.476;8.484;2023-07-24T05:34:28;10.00;;;6.50;;
12947;SDS011;6539;49.476;8.484;2023-07-24T05:37:14;12.23;;;7.00;;
12947;SDS011;6539;49.476;8.484;2023-07-24T05:40:00;8.77;;;6.97;;
12947;SDS011;6539;49.476;8.484;2023-07-24T05:42:46;9.10;;;6.90;;
12947;SDS011;6539;49.476;8.484;2023-07-24T05:45:33;8.37;;;6.50;;
12947;SDS011;6539;49.476;8.484;2023-07-24T05:48:21;9.77;;;7.03;;
12947;SDS011;6539;49.476;8.484;2023-07-24T05:51:07;7.30;;;6.33;;
12947;SDS011;6539;49.476;8.484;2023-07-24T05:53:56;8.13;;;6.30;;
12947;SDS011;6539;49.476;8.484;2023-07-24T05:56:44;11.03;;;6.77;;
12947;SDS011;6539;49.476;8.484;2023-07-24T05:59:30;8.80;;;6.20;;
12947;SDS011;6539;49.476;8.484;2023-07-24T06:02:18;10.17;;;6.90;;
12947;SDS011;6539;49.476;8.484;2023-07-24T06:05:04;9.23;;;7.07;;
12947;SDS011;6539;49.476;8.484;2023-07-24T06:07:51;8.90;;;6.80;;
12947;SDS011;6539;49.476;8.484;2023-07-24T06:10:37;8.13;;;6.47;;
12947;SDS011;6539;49.476;8.484;2023-07-24T06:13:25;8.93;;;6.93;;
12947;SDS011;6539;49.476;8.484;2023-07-24T06:16:11;8.93;;;6.80;;
12947;SDS011;6539;49.476;8.484;2023-07-24T06:18:59;7.63;;;6.47;;
12947;SDS011;6539;49.476;8.484;2023-07-24T06:21:45;8.93;;;6.97;;
12947;SDS011;6539;49.476;8.484;2023-07-24T06:24:31;9.57;;;7.23;;
12947;SDS011;6539;49.476;8.484;2023-07-24T06:27:20;10.77;;;7.43;;
12947;SDS011;6539;49.476;8.484;2023-07-24T06:30:06;10.67;;;8.40;;
12947;SDS011;6539;49.476;8.484;2023-07-24T06:32:53;7.90;;;6.50;;
12947;SDS011;6539;49.476;8.484;2023-07-24T06:35:39;12.57;;;8.00;;
12947;SDS011;6539;49.476;8.484;2023-07-24T06:38:27;8.57;;;7.23;;
12947;SDS011;6539;49.476;8.484;2023-07-24T06:41:15;8.43;;;6.57;;
12947;SDS011;6539;49.476;8.484;2023-07-24T06:44:07;9.53;;;7.20;;
12947;SDS011;6539;49.476;8.484;2023-07-24T06:46:57;10.27;;;7.53;;
12947;SDS011;6539;49.476;8.484;2023-07-24T06:49:45;9.10;;;6.93;;
12947;SDS011;6539;49.476;8.484;2023-07-24T06:52:33;13.97;;;8.07;;
12947;SDS011;6539;49.476;8.484;2023-07-24T06:55:20;11.27;;;7.50;;
12947;SDS011;6539;49.476;8.484;2023-07-24T06:58:06;10.57;;;7.27;;
12947;SDS011;6539;49.476;8.484;2023-07-24T07:00:52;9.10;;;7.10;;
12947;SDS011;6539;49.476;8.484;2023-07-24T07:03:38;10.00;;;6.97;;
12947;SDS011;6539;49.476;8.484;2023-07-24T07:06:24;10.70;;;7.13;;
12947;SDS011;6539;49.476;8.484;2023-07-24T07:09:10;10.53;;;7.87;;
12947;SDS011;6539;49.476;8.484;2023-07-24T07:11:58;10.37;;;6.43;;
12947;SDS011;6539;49.476;8.484;2023-07-24T07:14:44;10.70;;;7.90;;
12947;SDS011;6539;49.476;8.484;2023-07-24T07:17:33;10.30;;;7.90;;
12947;SDS011;6539;49.476;8.484;2023-07-24T07:20:19;10.33;;;7.50;;
12947;SDS011;6539;49.476;8.484;2023-07-24T07:23:05;13.27;;;7.43;;
12947;SDS011;6539;49.476;8.484;2023-07-24T07:25:51;11.93;;;7.87;;
12947;SDS011;6539;49.476;8.484;2023-07-24T07:28:37;10.90;;;7.97;;
12947;SDS011;6539;49.476;8.484;2023-07-24T07:31:30;12.00;;;7.40;;
12947;SDS011;6539;49.476;8.484;2023-07-24T07:34:16;10.50;;;7.80;;
12947;SDS011;6539;49.476;8.484;2023-07-24T07:37:02;12.67;;;7.97;;
12947;SDS011;6539;49.476;8.484;2023-07-24T07:39:48;9.90;;;7.53;;
12947;SDS011;6539;49.476;8.484;2023-07-24T07:42:34;10.63;;;8.20;;
12947;SDS011;6539;49.476;8.484;2023-07-24T07:45:23;12.60;;;7.70;;
12947;SDS011;6539;49.476;8.484;2023-07-24T07:48:09;9.77;;;7.63;;
12947;SDS011;6539;49.476;8.484;2023-07-24T07:50:55;9.17;;;7.87;;
12947;SDS011;6539;49.476;8.484;2023-07-24T07:53:41;11.63;;;7.60;;
12947;SDS011;6539;49.476;8.484;2023-07-24T07:56:30;12.03;;;8.60;;
12947;SDS011;6539;49.476;8.484;2023-07-24T07:59:16;9.00;;;7.00;;
12947;SDS011;6539;49.476;8.484;2023-07-24T08:02:02;10.93;;;8.03;;
12947;SDS011;6539;49.476;8.484;2023-07-24T08:04:48;13.43;;;8.30;;
12947;SDS011;6539;49.476;8.484;2023-07-24T08:07:34;10.27;;;8.03;;
12947;SDS011;6539;49.476;8.484;2023-07-24T08:10:20;10.43;;;7.73;;
12947;SDS011;6539;49.476;8.484;2023-07-24T08:13:06;11.30;;;7.70;;
12947;SDS011;6539;49.476;8.484;2023-07-24T08:15:54;10.30;;;7.23;;
12947;SDS011;6539;49.476;8.484;2023-07-24T08:18:48;11.10;;;7.17;;
12947;SDS011;6539;49.476;8.484;2023-07-24T08:21:37;12.03;;;8.07;;
12947;SDS011;6539;49.476;8.484;2023-07-24T08:24:26;10.23;;;7.37;;
12947;SDS011;6539;49.476;8.484;2023-07-24T08:27:17;8.57;;;7.27;;
12947;SDS011;6539;49.476;8.484;2023-07-24T08:30:03;9.33;;;7.07;;
12947;SDS011;6539;49.476;8.484;2023-07-24T08:32:50;9.07;;;7.17;;
12947;SDS011;6539;49.476;8.484;2023-07-24T08:35:36;12.80;;;7.20;;
12947;SDS011;6539;49.476;8.484;2023-07-24T08:38:22;8.63;;;6.93;;
12947;SDS011;6539;49.476;8.484;2023-07-24T08:41:10;10.57;;;7.40;;
12947;SDS011;6539;49.476;8.484;2023-07-24T08:43:58;10.67;;;7.03;;
12947;SDS011;6539;49.476;8.484;2023-07-24T08:46:45;8.37;;;6.80;;
12947;SDS011;6539;49.476;8.484;2023-07-24T08:49:33;8.60;;;7.03;;
12947;SDS011;6539;49.476;8.484;2023-07-24T08:52:22;10.23;;;7.17;;
12947;SDS011;6539;49.476;8.484;2023-07-24T08:55:09;12.37;;;7.77;;
12947;SDS011;6539;49.476;8.484;2023-07-24T08:57:57;10.37;;;7.57;;
12947;SDS011;6539;49.476;8.484;2023-07-24T09:00:43;9.97;;;7.40;;
12947;SDS011;6539;49.476;8.484;2023-07-24T09:03:30;11.93;;;7.43;;
12947;SDS011;6539;49.476;8.484;2023-07-24T09:06:20;12.07;;;7.53;;
12947;SDS011;6539;49.476;8.484;2023-07-24T09:09:13;12.40;;;7.23;;
12947;SDS011;6539;49.476;8.484;2023-07-24T09:12:00;8.33;;;6.93;;
12947;SDS011;6539;49.476;8.484;2023-07-24T09:14:46;9.60;;;7.23;;
12947;SDS011;6539;49.476;8.484;2023-07-24T09:17:51;10.37;;;7.27;;
12947;SDS011;6539;49.476;8.484;2023-07-24T09:20:41;11.10;;;7.87;;
12947;SDS011;6539;49.476;8.484;2023-07-24T09:23:28;9.43;;;7.83;;
12947;SDS011;6539;49.476;8.484;2023-07-24T09:26:16;7.80;;;6.90;;
12947;SDS011;6539;49.476;8.484;2023-07-24T09:29:02;9.43;;;7.23;;
12947;SDS011;6539;49.476;8.484;2023-07-24T09:31:51;8.87;;;6.60;;
12947;SDS011;6539;49.476;8.484;2023-07-24T09:34:41;10.47;;;7.63;;
12947;SDS011;6539;49.476;8.484;2023-07-24T09:37:30;11.37;;;7.67;;
12947;SDS011;6539;49.476;8.484;2023-07-24T09:40:22;11.03;;;7.43;;
12947;SDS011;6539;49.476;8.484;2023-07-24T09:43:15;8.53;;;7.17;;
12947;SDS011;6539;49.476;8.484;2023-07-24T09:46:07;13.23;;;8.63;;
12947;SDS011;6539;49.476;8.484;2023-07-24T09:48:54;9.23;;;7.50;;
12947;SDS011;6539;49.476;8.484;2023-07-24T09:51:42;10.97;;;7.23;;
12947;SDS011;6539;49.476;8.484;2023-07-24T09:54:37;12.23;;;7.97;;
12947;SDS011;6539;49.476;8.484;2023-07-24T09:57:34;12.87;;;7.37;;
12947;SDS011;6539;49.476;8.484;2023-07-24T10:00:21;10.40;;;7.67;;
12947;SDS011;6539;49.476;8.484;2023-07-24T10:03:08;11.63;;;8.40;;
12947;SDS011;6539;49.476;8.484;2023-07-24T10:05:55;10.20;;;8.10;;
12947;SDS011;6539;49.476;8.484;2023-07-24T10:08:41;8.90;;;7.17;;
12947;SDS011;6539;49.476;8.484;2023-07-24T10:11:31;11.03;;;7.20;;
12947;SDS011;6539;49.476;8.484;2023-07-24T10:14:17;8.63;;;7.40;;
12947;SDS011;6539;49.476;8.484;2023-07-24T10:17:04;7.73;;;6.93;;
12947;SDS011;6539;49.476;8.484;2023-07-24T10:20:01;11.17;;;7.43;;
12947;SDS011;6539;49.476;8.484;2023-07-24T10:22:52;8.93;;;7.37;;
12947;SDS011;6539;49.476;8.484;2023-07-24T10:25:49;9.40;;;7.47;;
12947;SDS011;6539;49.476;8.484;2023-07-24T10:28:38;10.67;;;7.37;;
12947;SDS011;6539;49.476;8.484;2023-07-24T10:31:26;13.93;;;8.17;;
12947;SDS011;6539;49.476;8.484;2023-07-24T10:34:15;9.70;;;6.87;;
12947;SDS011;6539;49.476;8.484;2023-07-24T10:37:06;9.60;;;7.40;;
12947;SDS011;6539;49.476;8.484;2023-07-24T10:39:55;10.20;;;6.83;;
12947;SDS011;6539;49.476;8.484;2023-07-24T10:42:41;10.13;;;6.37;;
12947;SDS011;6539;49.476;8.484;2023-07-24T10:45:37;11.67;;;7.20;;
12947;SDS011;6539;49.476;8.484;2023-07-24T10:48:48;9.93;;;6.43;;
12947;SDS011;6539;49.476;8.484;2023-07-24T10:51:36;9.57;;;7.57;;
12947;SDS011;6539;49.476;8.484;2023-07-24T10:54:23;11.57;;;7.53;;
12947;SDS011;6539;49.476;8.484;2023-07-24T10:57:09;7.13;;;6.43;;
12947;SDS011;6539;49.476;8.484;2023-07-24T10:59:55;9.87;;;7.20;;
12947;SDS011;6539;49.476;8.484;2023-07-24T11:02:44;10.13;;;6.70;;
12947;SDS011;6539;49.476;8.484;2023-07-24T11:05:33;9.93;;;7.23;;
12947;SDS011;6539;49.476;8.484;2023-07-24T11:08:19;10.20;;;6.70;;
12947;SDS011;6539;49.476;8.484;2023-07-24T11:11:08;9.90;;;6.30;;
12947;SDS011;6539;49.476;8.484;2023-07-24T11:13:57;10.20;;;6.50;;
12947;SDS011;6539;49.476;8.484;2023-07-24T11:16:49;8.57;;;6.63;;
12947;SDS011;6539;49.476;8.484;2023-07-24T11:19:35;11.07;;;6.67;;
12947;SDS011;6539;49.476;8.484;2023-07-24T11:22:23;7.43;;;6.47;;
12947;SDS011;6539;49.476;8.484;2023-07-24T11:25:12;9.43;;;5.93;;
12947;SDS011;6539;49.476;8.484;2023-07-24T11:28:06;8.10;;;5.87;;
12947;SDS011;6539;49.476;8.484;2023-07-24T11:31:01;9.07;;;6.23;;
12947;SDS011;6539;49.476;8.484;2023-07-24T11:33:51;8.47;;;6.40;;
12947;SDS011;6539;49.476;8.484;2023-07-24T11:36:40;9.93;;;5.83;;
12947;SDS011;6539;49.476;8.484;2023-07-24T11:39:31;8.33;;;6.37;;
12947;SDS011;6539;49.476;8.484;2023-07-24T11:42:17;8.07;;;6.40;;
12947;SDS011;6539;49.476;8.484;2023-07-24T11:45:03;8.60;;;6.70;;
12947;SDS011;6539;49.476;8.484;2023-07-24T11:47:52;10.77;;;6.40;;
12947;SDS011;6539;49.476;8.484;2023-07-24T11:50:49;9.83;;;6.43;;
12947;SDS011;6539;49.476;8.484;2023-07-24T11:53:40;8.03;;;6.90;;
12947;SDS011;6539;49.476;8.484;2023-07-24T11:56:31;8.07;;;6.83;;
12947;SDS011;6539;49.476;8.484;2023-07-24T11:59:18;11.30;;;7.00;;
12947;SDS011;6539;49.476;8.484;2023-07-24T12:02:06;8.13;;;6.57;;
12947;SDS011;6539;49.476;8.484;2023-07-24T12:04:59;10.53;;;6.60;;
12947;SDS011;6539;49.476;8.484;2023-07-24T12:07:50;10.30;;;6.83;;
12947;SDS011;6539;49.476;8.484;2023-07-24T12:10:42;8.50;;;6.50;;
12947;SDS011;6539;49.476;8.484;2023-07-24T12:13:28;10.13;;;6.67;;
12947;SDS011;6539;49.476;8.484;2023-07-24T12:16:17;8.67;;;6.57;;
12947;SDS011;6539;49.476;8.484;2023-07-24T12:19:06;8.30;;;6.43;;
12947;SDS011;6539;49.476;8.484;2023-07-24T12:21:54;8.13;;;6.77;;
12947;SDS011;6539;49.476;8.484;2023-07-24T12:24:40;10.60;;;6.60;;
12947;SDS011;6539;49.476;8.484;2023-07-24T12:27:31;9.70;;;6.97;;
12947;SDS011;6539;49.476;8.484;2023-07-24T12:30:22;8.57;;;6.73;;
12947;SDS011;6539;49.476;8.484;2023-07-24T12:33:14;8.40;;;6.37;;
12947;SDS011;6539;49.476;8.484;2023-07-24T12:36:00;9.77;;;6.87;;
12947;SDS011;6539;49.476;8.484;2023-07-24T12:38:47;7.80;;;7.00;;
12947;SDS011;6539;49.476;8.484;2023-07-24T12:41:35;9.17;;;6.53;;
12947;SDS011;6539;49.476;8.484;2023-07-24T12:44:24;8.67;;;6.53;;
12947;SDS011;6539;49.476;8.484;2023-07-24T12:47:11;8.43;;;6.80;;
12947;SDS011;6539;49.476;8.484;2023-07-24T12:49:58;7.67;;;6.13;;
12947;SDS011;6539;49.476;8.484;2023-07-24T12:52:45;7.13;;;6.43;;
12947;SDS011;6539;49.476;8.484;2023-07-24T12:55:34;7.17;;;6.27;;
12947;SDS011;6539;49.476;8.484;2023-07-24T12:58:22;8.20;;;6.10;;
12947;SDS011;6539;49.476;8.484;2023-07-24T13:01:08;7.87;;;6.93;;
12947;SDS011;6539;49.476;8.484;2023-07-24T13:03:54;7.23;;;6.50;;
12947;SDS011;6539;49.476;8.484;2023-07-24T13:06:40;8.13;;;6.67;;
12947;SDS011;6539;49.476;8.484;2023-07-24T13:09:29;7.70;;;6.63;;
12947;SDS011;6539;49.476;8.484;2023-07-24T13:12:17;8.30;;;6.70;;
12947;SDS011;6539;49.476;8.484;2023-07-24T13:15:03;9.43;;;6.50;;
12947;SDS011;6539;49.476;8.484;2023-07-24T13:17:52;8.90;;;6.60;;
12947;SDS011;6539;49.476;8.484;2023-07-24T13:20:38;7.53;;;6.63;;
12947;SDS011;6539;49.476;8.484;2023-07-24T13:23:31;7.03;;;6.20;;
12947;SDS011;6539;49.476;8.484;2023-07-24T13:26:18;8.25;;;6.45;;
12947;SDS011;6539;49.476;8.484;2023-07-24T13:29:04;6.88;;;5.68;;
12947;SDS011;6539;49.476;8.484;2023-07-24T13:31:50;7.13;;;6.43;;
12947;SDS011;6539;49.476;8.484;2023-07-24T13:34:39;7.22;;;5.68;;
12947;SDS011;6539;49.476;8.484;2023-07-24T13:37:25;7.25;;;6.47;;
12947;SDS011;6539;49.476;8.484;2023-07-24T13:40:11;7.45;;;6.20;;
12947;SDS011;6539;49.476;8.484;2023-07-24T13:42:57;8.80;;;6.30;;
12947;SDS011;6539;49.476;8.484;2023-07-24T13:45:43;8.27;;;6.32;;
12947;SDS011;6539;49.476;8.484;2023-07-24T13:48:30;8.48;;;6.80;;
12947;SDS011;6539;49.476;8.484;2023-07-24T13:51:18;10.30;;;6.33;;
12947;SDS011;6539;49.476;8.484;2023-07-24T13:54:04;7.83;;;6.40;;
12947;SDS011;6539;49.476;8.484;2023-07-24T13:56:50;10.35;;;6.45;;
12947;SDS011;6539;49.476;8.484;2023-07-24T13:59:37;7.17;;;6.23;;
12947;SDS011;6539;49.476;8.484;2023-07-24T14:02:32;7.83;;;5.90;;
12947;SDS011;6539;49.476;8.484;2023-07-24T14:05:21;8.47;;;5.93;;
12947;SDS011;6539;49.476;8.484;2023-07-24T14:08:07;9.80;;;6.93;;
12947;SDS011;6539;49.476;8.484;2023-07-24T14:10:53;7.23;;;6.47;;
12947;SDS011;6539;49.476;8.484;2023-07-24T14:13:39;8.77;;;6.53;;
12947;SDS011;6539;49.476;8.484;2023-07-24T14:16:26;9.23;;;6.80;;
12947;SDS011;6539;49.476;8.484;2023-07-24T14:19:12;10.90;;;6.73;;
12947;SDS011;6539;49.476;8.484;2023-07-24T14:21:58;12.37;;;8.80;;
12947;SDS011;6539;49.476;8.484;2023-07-24T14:24:44;17.40;;;12.13;;
12947;SDS011;6539;49.476;8.484;2023-07-24T14:27:31;9.17;;;7.50;;
12947;SDS011;6539;49.476;8.484;2023-07-24T14:30:18;9.73;;;7.67;;
12947;SDS011;6539;49.476;8.484;2023-07-24T14:33:04;11.73;;;8.03;;
12947;SDS011;6539;49.476;8.484;2023-07-24T14:35:52;12.10;;;9.50;;
12947;SDS011;6539;49.476;8.484;2023-07-24T14:38:40;13.23;;;9.23;;
12947;SDS011;6539;49.476;8.484;2023-07-24T14:41:29;13.33;;;8.40;;
12947;SDS011;6539;49.476;8.484;2023-07-24T14:44:18;12.40;;;8.07;;
12947;SDS011;6539;49.476;8.484;2023-07-24T14:47:06;11.57;;;8.63;;
12947;SDS011;6539;49.476;8.484;2023-07-24T14:49:53;13.37;;;7.73;;
12947;SDS011;6539;49.476;8.484;2023-07-24T14:52:42;11.40;;;7.80;;
12947;SDS011;6539;49.476;8.484;2023-07-24T14:55:30;11.43;;;7.60;;
12947;SDS011;6539;49.476;8.484;2023-07-24T14:58:16;12.43;;;8.07;;
12947;SDS011;6539;49.476;8.484;2023-07-24T15:01:02;12.57;;;7.50;;
12947;SDS011;6539;49.476;8.484;2023-07-24T15:03:50;10.13;;;7.63;;
12947;SDS011;6539;49.476;8.484;2023-07-24T15:06:36;10.93;;;7.90;;
12947;SDS011;6539;49.476;8.484;2023-07-24T15:09:22;10.63;;;7.53;;
12947;SDS011;6539;49.476;8.484;2023-07-24T15:12:08;10.00;;;7.67;;
12947;SDS011;6539;49.476;8.484;2023-07-24T15:14:57;9.80;;;6.80;;
12947;SDS011;6539;49.476;8.484;2023-07-24T15:17:43;10.30;;;6.27;;
12947;SDS011;6539;49.476;8.484;2023-07-24T15:20:31;9.53;;;6.10;;
12947;SDS011;6539;49.476;8.484;2023-07-24T15:23:17;8.40;;;5.70;;
12947;SDS011;6539;49.476;8.484;2023-07-24T15:26:06;7.03;;;5.20;;
12947;SDS011;6539;49.476;8.484;2023-07-24T15:28:54;5.60;;;4.28;;
12947;SDS011;6539;49.476;8.484;2023-07-24T15:31:43;4.85;;;4.15;;
12947;SDS011;6539;49.476;8.484;2023-07-24T15:34:33;6.43;;;4.03;;
12947;SDS011;6539;49.476;8.484;2023-07-24T15:37:21;4.47;;;3.63;;
12947;SDS011;6539;49.476;8.484;2023-07-24T15:40:09;3.97;;;3.58;;
12947;SDS011;6539;49.476;8.484;2023-07-24T15:42:58;5.97;;;3.27;;
12947;SDS011;6539;49.476;8.484;2023-07-24T15:45:45;3.73;;;3.17;;
12947;SDS011;6539;49.476;8.484;2023-07-24T15:48:33;4.03;;;2.90;;
12947;SDS011;6539;49.476;8.484;2023-07-24T15:51:24;3.50;;;3.20;;
12947;SDS011;6539;49.476;8.484;2023-07-24T15:54:12;4.13;;;2.97;;
12947;SDS011;6539;49.476;8.484;2023-07-24T15:57:01;4.30;;;3.37;;
12947;SDS011;6539;49.476;8.484;2023-07-24T15:59:49;5.17;;;3.50;;
12947;SDS011;6539;49.476;8.484;2023-07-24T16:02:40;8.47;;;4.20;;
12947;SDS011;6539;49.476;8.484;2023-07-24T16:05:26;10.90;;;9.03;;
12947;SDS011;6539;49.476;8.484;2023-07-24T16:08:14;5.07;;;3.93;;
12947;SDS011;6539;49.476;8.484;2023-07-24T16:11:02;4.00;;;3.40;;
12947;SDS011;6539;49.476;8.484;2023-07-24T16:13:53;6.13;;;3.10;;
12947;SDS011;6539;49.476;8.484;2023-07-24T16:16:41;3.50;;;2.73;;
12947;SDS011;6539;49.476;8.484;2023-07-24T16:19:27;3.80;;;2.20;;
12947;SDS011;6539;49.476;8.484;2023-07-24T16:22:14;2.60;;;2.05;;
12947;SDS011;6539;49.476;8.484;2023-07-24T16:25:00;5.07;;;1.92;;
12947;SDS011;6539;49.476;8.484;2023-07-24T16:27:50;2.88;;;1.75;;
12947;SDS011;6539;49.476;8.484;2023-07-24T16:30:36;6.88;;;6.20;;
12947;SDS011;6539;49.476;8.484;2023-07-24T16:33:22;1.77;;;1.38;;
12947;SDS011;6539;49.476;8.484;2023-07-24T16:36:10;1.90;;;1.40;;
12947;SDS011;6539;49.476;8.484;2023-07-24T16:38:58;1.55;;;1.38;;
12947;SDS011;6539;49.476;8.484;2023-07-24T16:41:44;3.30;;;1.45;;
12947;SDS011;6539;49.476;8.484;2023-07-24T16:44:30;4.10;;;2.10;;
12947;SDS011;6539;49.476;8.484;2023-07-24T16:47:16;2.15;;;1.60;;
12947;SDS011;6539;49.476;8.484;2023-07-24T16:50:03;2.85;;;1.60;;
12947;SDS011;6539;49.476;8.484;2023-07-24T16:52:52;3.05;;;1.70;;
12947;SDS011;6539;49.476;8.484;2023-07-24T16:55:40;2.17;;;1.80;;
12947;SDS011;6539;49.476;8.484;2023-07-24T16:58:26;1.77;;;1.50;;
12947;SDS011;6539;49.476;8.484;2023-07-24T17:01:12;3.58;;;1.85;;
12947;SDS011;6539;49.476;8.484;2023-07-24T17:03:58;1.70;;;1.60;;
12947;SDS011;6539;49.476;8.484;2023-07-24T17:06:44;4.55;;;1.95;;